createdAt,value
2023-03-01T00:06:25.847Z,81.30
2023-03-01T00:08:54.120Z,80.90
2023-03-01T00:11:22.646Z,78.60
2023-03-01T00:13:54.532Z,78.70
2023-03-01T00:16:25.452Z,79.40
2023-03-01T00:18:53.824Z,78.50
2023-03-01T00:21:23.360Z,77.00
2023-03-01T00:23:52.006Z,76.50
2023-03-01T00:26:21.797Z,75.80
2023-03-01T00:28:51.688Z,76.00
2023-03-01T00:31:21.877Z,76.10
2023-03-01T00:33:50.209Z,75.50
2023-03-01T00:36:18.822Z,76.30
2023-03-01T00:38:48.180Z,77.00
2023-03-01T00:41:19.195Z,76.80
2023-03-01T00:43:47.880Z,77.40
2023-03-01T00:46:19.129Z,76.30
2023-03-01T00:48:47.697Z,76.50
2023-03-01T00:51:17.858Z,77.30
2023-03-01T00:53:47.673Z,76.60
2023-03-01T00:56:17.046Z,76.10
2023-03-01T00:58:45.857Z,76.10
2023-03-01T01:01:19.179Z,75.60
2023-03-01T01:03:54.186Z,76.00
2023-03-01T01:06:24.424Z,76.40
2023-03-01T01:08:54.232Z,76.20
2023-03-01T01:11:23.323Z,76.10
2023-03-01T01:13:51.925Z,76.60
2023-03-01T01:16:21.921Z,76.00
2023-03-01T01:18:51.979Z,76.60
2023-03-01T01:21:23.785Z,75.30
2023-03-01T01:23:52.712Z,75.00
2023-03-01T01:26:23.027Z,75.90
2023-03-01T01:28:51.801Z,75.80
2023-03-01T01:31:20.661Z,76.20
2023-03-01T01:33:49.140Z,76.30
2023-03-01T01:36:19.017Z,75.70
2023-03-01T01:38:47.432Z,75.70
2023-03-01T01:41:16.507Z,76.50
2023-03-01T01:43:46.259Z,76.80
2023-03-01T01:46:24.052Z,77.00
2023-03-01T01:48:57.309Z,76.60
2023-03-01T01:51:39.186Z,77.30
2023-03-01T01:54:12.466Z,76.70
2023-03-01T01:56:44.112Z,76.00
2023-03-01T01:59:13.285Z,75.80
2023-03-01T02:01:41.550Z,76.00
2023-03-01T02:04:09.855Z,77.00
2023-03-01T02:06:46.321Z,78.50
2023-03-01T02:09:17.889Z,79.00
2023-03-01T02:11:46.673Z,78.60
2023-03-01T02:14:15.178Z,78.20
2023-03-01T02:16:43.673Z,79.20
2023-03-01T02:19:19.686Z,77.60
2023-03-01T02:21:56.952Z,77.00
2023-03-01T02:24:36.426Z,76.80
2023-03-01T02:27:05.978Z,76.60
2023-03-01T02:29:35.560Z,74.60
2023-03-01T02:32:05.866Z,74.70
2023-03-01T02:34:35.200Z,75.00
2023-03-01T02:37:07.293Z,75.00
2023-03-01T02:39:42.955Z,74.20
2023-03-01T02:42:14.527Z,73.30
2023-03-01T02:44:44.235Z,71.80
2023-03-01T02:47:12.411Z,72.30
2023-03-01T02:49:40.584Z,71.80
2023-03-01T02:52:33.010Z,72.30
2023-03-01T02:55:04.295Z,72.70
2023-03-01T02:57:35.108Z,72.50
2023-03-01T03:00:09.235Z,71.90
2023-03-01T03:02:38.229Z,71.90
2023-03-01T03:05:09.832Z,71.90
2023-03-01T03:07:40.053Z,70.50
2023-03-01T03:10:12.303Z,70.20
2023-03-01T03:12:41.050Z,70.60
2023-03-01T03:15:13.778Z,69.60
2023-03-01T03:17:45.358Z,70.20
2023-03-01T03:20:20.061Z,69.60
2023-03-01T03:22:49.502Z,69.50
2023-03-01T03:25:18.608Z,69.20
2023-03-01T03:27:48.942Z,68.30
2023-03-01T03:30:22.639Z,67.40
2023-03-01T03:32:54.221Z,66.30
2023-03-01T03:35:25.364Z,65.70
2023-03-01T03:38:03.646Z,65.60
2023-03-01T03:40:33.308Z,66.40
2023-03-01T03:43:01.512Z,65.90
2023-03-01T03:45:34.323Z,66.30
2023-03-01T03:48:03.302Z,66.60
2023-03-01T03:50:31.591Z,66.40
2023-03-01T03:53:02.906Z,66.20
2023-03-01T03:55:31.883Z,65.90
2023-03-01T03:58:03.211Z,66.70
2023-03-01T04:00:32.882Z,66.30
2023-03-01T04:03:01.768Z,66.30
2023-03-01T04:05:30.635Z,66.00
2023-03-01T04:08:08.114Z,65.10
2023-03-01T04:10:38.558Z,65.80
2023-03-01T04:13:07.861Z,66.50
2023-03-01T04:15:37.556Z,65.80
2023-03-01T04:18:06.466Z,65.60
2023-03-01T04:20:37.265Z,65.80
2023-03-01T04:23:16.596Z,66.10
2023-03-01T04:25:50.429Z,65.70
2023-03-01T04:28:18.766Z,66.70
2023-03-01T04:30:48.368Z,66.60
2023-03-01T04:33:16.548Z,66.10
2023-03-01T04:35:44.802Z,65.00
2023-03-01T04:38:13.109Z,65.20
2023-03-01T04:40:43.461Z,64.20
2023-03-01T04:43:12.696Z,64.70
2023-03-01T04:45:40.913Z,63.80
2023-03-01T04:48:10.485Z,64.50
2023-03-01T04:50:38.779Z,64.70
2023-03-01T04:53:07.170Z,63.50
2023-03-01T04:55:36.256Z,63.70
2023-03-01T04:58:04.408Z,64.40
2023-03-01T05:00:32.597Z,64.30
2023-03-01T05:03:02.580Z,64.70
2023-03-01T05:05:34.146Z,65.00
2023-03-01T05:08:05.209Z,64.00
2023-03-01T05:10:36.269Z,65.50
2023-03-01T05:13:05.657Z,65.40
2023-03-01T05:15:34.421Z,64.30
2023-03-01T05:18:02.813Z,64.50
2023-03-01T05:20:32.596Z,64.80
2023-03-01T05:23:06.337Z,64.30
2023-03-01T05:25:35.887Z,64.20
2023-03-01T05:28:05.497Z,64.20
2023-03-01T05:30:34.816Z,64.60
2023-03-01T05:33:03.658Z,64.20
2023-03-01T05:35:35.414Z,64.20
2023-03-01T05:38:03.644Z,63.80
2023-03-01T05:40:31.831Z,65.00
2023-03-01T05:43:00.068Z,64.10
2023-03-01T05:45:29.430Z,65.40
2023-03-01T05:47:57.607Z,64.10
2023-03-01T05:50:27.938Z,63.60
2023-03-01T05:53:04.176Z,63.10
2023-03-01T05:55:32.790Z,62.40
2023-03-01T05:58:02.113Z,62.30
2023-03-01T06:00:31.311Z,62.50
2023-03-01T06:03:00.113Z,62.80
2023-03-01T06:05:29.016Z,62.30
2023-03-01T06:08:00.316Z,62.30
2023-03-01T06:10:30.052Z,62.00
2023-03-01T06:12:58.856Z,61.80
2023-03-01T06:15:27.808Z,61.40
2023-03-01T06:17:59.960Z,61.40
2023-03-01T06:20:30.409Z,61.10
2023-03-01T06:22:58.994Z,61.30
2023-03-01T06:25:29.732Z,61.70
2023-03-01T06:27:58.123Z,61.00
2023-03-01T06:30:28.087Z,61.20
2023-03-01T06:33:01.929Z,60.40
2023-03-01T06:35:31.798Z,61.80
2023-03-01T06:38:01.280Z,61.70
2023-03-01T06:40:32.134Z,61.50
2023-03-01T06:43:00.845Z,60.00
2023-03-01T06:45:29.157Z,60.80
2023-03-01T06:48:05.526Z,60.30
2023-03-01T06:50:34.160Z,60.30
2023-03-01T06:53:02.859Z,60.60
2023-03-01T06:55:33.116Z,60.60
2023-03-01T06:58:02.849Z,60.30
2023-03-01T07:00:31.382Z,60.70
2023-03-01T07:03:01.434Z,60.60
2023-03-01T07:05:29.744Z,59.60
2023-03-01T07:07:57.962Z,59.70
2023-03-01T07:10:26.349Z,59.80
2023-03-01T07:12:58.344Z,59.50
2023-03-01T07:15:27.304Z,59.30
2023-03-01T07:17:55.540Z,59.00
2023-03-01T07:20:26.182Z,59.30
2023-03-01T07:22:55.103Z,59.40
2023-03-01T07:25:23.485Z,59.20
2023-03-01T07:27:53.338Z,59.50
2023-03-01T07:30:26.906Z,59.50
2023-03-01T07:32:56.025Z,59.60
2023-03-01T07:35:24.563Z,59.00
2023-03-01T07:37:52.741Z,59.40
2023-03-01T07:40:21.385Z,59.80
2023-03-01T07:42:49.615Z,59.30
2023-03-01T07:45:17.962Z,59.00
2023-03-01T07:47:47.574Z,58.90
2023-03-01T07:50:16.471Z,58.20
2023-03-01T07:52:46.779Z,58.70
2023-03-01T07:55:15.111Z,58.40
2023-03-01T07:57:43.318Z,57.90
2023-03-01T08:00:13.902Z,57.40
2023-03-01T08:02:43.060Z,57.40
2023-03-01T08:05:13.189Z,57.60
2023-03-01T08:07:41.423Z,57.70
2023-03-01T08:10:10.658Z,58.10
2023-03-01T08:12:39.071Z,58.30
2023-03-01T08:15:08.312Z,57.60
2023-03-01T08:17:36.801Z,57.70
2023-03-01T08:20:07.428Z,56.90
2023-03-01T08:22:37.192Z,58.20
2023-03-01T08:25:05.979Z,57.80
2023-03-01T08:27:34.139Z,57.20
2023-03-01T08:30:02.273Z,57.40
2023-03-01T08:32:30.656Z,57.70
2023-03-01T08:34:59.063Z,57.50
2023-03-01T08:37:27.753Z,57.20
2023-03-01T08:39:57.331Z,56.90
2023-03-01T08:42:25.540Z,56.40
2023-03-01T08:44:53.737Z,55.90
2023-03-01T08:47:21.987Z,56.10
2023-03-01T08:49:52.112Z,54.90
2023-03-01T08:52:20.284Z,55.60
2023-03-01T08:54:50.295Z,56.20
2023-03-01T08:57:20.042Z,55.30
2023-03-01T08:59:48.289Z,54.20
2023-03-01T09:02:18.774Z,54.80
2023-03-01T09:04:47.328Z,53.70
2023-03-01T09:07:15.607Z,53.60
2023-03-01T09:09:43.860Z,55.00
2023-03-01T09:12:12.259Z,54.00
2023-03-01T09:14:42.340Z,53.40
2023-03-01T09:17:10.734Z,53.70
2023-03-01T09:19:39.174Z,53.80
2023-03-01T09:22:07.512Z,53.00
2023-03-01T09:24:35.695Z,52.20
2023-03-01T09:27:03.991Z,51.70
2023-03-01T09:29:32.187Z,52.00
2023-03-01T09:32:01.846Z,51.60
2023-03-01T09:34:30.296Z,53.20
2023-03-01T09:37:03.374Z,52.10
2023-03-01T09:39:33.018Z,50.00
2023-03-01T09:42:03.843Z,49.70
2023-03-01T09:44:38.897Z,48.70
2023-03-01T09:47:19.870Z,49.00
2023-03-01T09:49:53.724Z,49.30
2023-03-01T09:52:30.765Z,52.00
2023-03-01T09:55:00.828Z,50.00
2023-03-01T09:57:38.805Z,49.10
2023-03-01T10:00:22.429Z,48.80
2023-03-01T10:03:00.494Z,49.10
2023-03-01T10:05:39.151Z,48.30
2023-03-01T10:08:37.177Z,47.50
2023-03-01T10:11:07.536Z,52.30
2023-03-01T10:13:47.878Z,52.00
2023-03-01T10:16:19.573Z,51.50
2023-03-01T10:18:55.925Z,50.40
2023-03-01T10:21:24.411Z,51.00
2023-03-01T10:23:54.962Z,51.50
2023-03-01T10:26:45.844Z,51.30
2023-03-01T10:29:15.156Z,51.20
2023-03-01T10:31:46.623Z,50.10
2023-03-01T10:34:19.785Z,49.00
2023-03-01T10:36:52.083Z,50.00
2023-03-01T10:39:22.587Z,49.10
2023-03-01T10:42:02.278Z,48.40
2023-03-01T10:44:46.014Z,48.70
2023-03-01T10:47:21.444Z,49.90
2023-03-01T10:49:59.990Z,49.30
2023-03-01T10:52:32.480Z,49.50
2023-03-01T10:55:02.118Z,48.90
2023-03-01T10:57:42.787Z,48.70
2023-03-01T11:00:23.571Z,48.60
2023-03-01T11:03:03.656Z,47.70
2023-03-01T11:05:34.719Z,47.40
2023-03-01T11:08:05.259Z,48.30
2023-03-01T11:10:35.754Z,47.00
2023-03-01T11:13:16.493Z,47.50
2023-03-01T11:15:45.597Z,46.80
2023-03-01T11:18:30.979Z,46.90
2023-03-01T11:21:09.729Z,47.30
2023-03-01T11:23:41.404Z,49.10
2023-03-01T11:26:12.975Z,48.50
2023-03-01T11:28:44.381Z,48.10
2023-03-01T11:31:13.956Z,47.90
2023-03-01T11:36:24.545Z,50.00
2023-03-01T11:38:52.909Z,48.60
2023-03-01T11:41:26.124Z,47.90
2023-03-01T11:43:59.124Z,48.00
2023-03-01T11:46:52.692Z,48.20
2023-03-01T11:49:47.821Z,48.50
2023-03-01T11:52:27.301Z,48.10
2023-03-01T11:55:07.542Z,46.80
2023-03-01T11:57:51.682Z,46.50
2023-03-01T12:00:39.758Z,46.30
2023-03-01T14:14:47.436Z,31.80
2023-03-01T14:17:35.969Z,27.80
2023-03-01T14:20:11.368Z,24.90
2023-03-01T14:22:42.588Z,27.80
2023-03-01T14:25:22.896Z,22.30
2023-03-01T14:27:59.348Z,19.70
2023-03-01T14:30:32.346Z,19.10
2023-03-01T14:33:03.534Z,21.00
2023-03-01T14:35:33.705Z,19.20
2023-03-01T14:38:02.060Z,19.30
2023-03-01T14:40:33.846Z,17.50
2023-03-01T14:43:09.667Z,16.80
2023-03-01T14:45:37.917Z,16.00
2023-03-01T14:48:09.330Z,17.80
2023-03-01T14:50:44.149Z,17.50
2023-03-01T14:53:19.415Z,16.30
2023-03-01T14:55:50.493Z,18.20
2023-03-01T14:58:22.330Z,18.80
2023-03-01T15:00:53.040Z,20.30
2023-03-01T15:03:33.441Z,20.60
2023-03-01T15:06:03.690Z,19.90
2023-03-01T15:08:35.284Z,21.50
2023-03-01T15:11:09.070Z,21.50
2023-03-01T15:13:38.172Z,21.50
2023-03-01T15:16:12.001Z,16.10
2023-03-01T15:18:47.178Z,14.90
2023-03-01T15:21:21.056Z,14.60
2023-03-01T15:23:54.553Z,13.00
2023-03-01T15:26:29.809Z,22.30
2023-03-01T15:29:00.989Z,24.00
2023-03-01T15:31:32.063Z,24.80
2023-03-01T15:34:26.192Z,25.90
2023-03-01T15:36:55.910Z,18.90
2023-03-01T15:39:40.094Z,16.80
2023-03-01T15:42:11.122Z,14.30
2023-03-01T15:44:44.013Z,12.20
2023-03-01T15:47:27.201Z,10.80
2023-03-01T15:49:58.982Z,9.90
2023-03-01T15:52:30.931Z,9.30
2023-03-01T15:55:01.273Z,8.80
2023-03-01T15:57:29.675Z,8.30
2023-03-01T15:59:57.870Z,7.80
2023-03-01T16:02:26.902Z,7.70
2023-03-01T16:04:57.364Z,7.70
2023-03-01T16:07:27.890Z,9.90
2023-03-01T16:12:25.142Z,25.10
2023-03-01T16:14:54.020Z,25.80
2023-03-01T16:54:41.979Z,1.70
2023-03-01T16:57:10.183Z,2.40
2023-03-01T16:59:38.555Z,2.60
2023-03-01T17:02:07.677Z,2.80
2023-03-01T17:04:35.709Z,3.10
2023-03-01T17:07:03.811Z,3.10
2023-03-01T17:09:32.129Z,3.00
2023-03-01T17:12:01.586Z,3.20
2023-03-01T17:14:30.138Z,3.20
2023-03-01T17:16:59.384Z,3.50
2023-03-01T17:19:30.217Z,3.60
2023-03-01T17:21:58.375Z,3.50
2023-03-01T17:24:26.523Z,3.70
2023-03-01T17:26:54.706Z,3.80
2023-03-01T17:29:24.159Z,3.80
2023-03-01T17:31:52.517Z,4.10
2023-03-01T17:34:21.049Z,4.30
2023-03-01T17:36:50.599Z,4.30
2023-03-01T17:39:20.540Z,4.40
2023-03-01T17:41:48.739Z,4.40
2023-03-01T17:44:16.932Z,4.50
2023-03-01T17:46:46.555Z,5.20
2023-03-01T17:49:14.809Z,4.80
2023-03-01T17:51:43.001Z,4.70
2023-03-01T17:54:11.193Z,4.70
2023-03-01T17:56:41.331Z,4.80
2023-03-01T17:59:09.867Z,5.00
2023-03-01T18:01:38.814Z,5.30
2023-03-01T18:04:08.458Z,5.30
2023-03-01T18:06:37.950Z,5.30
2023-03-01T18:09:06.430Z,5.50
2023-03-01T18:11:35.842Z,5.40
2023-03-01T18:14:04.713Z,5.70
2023-03-01T18:16:34.255Z,6.00
2023-03-01T18:19:03.354Z,6.10
2023-03-01T18:21:33.671Z,6.10
2023-03-01T18:24:02.111Z,6.10
2023-03-01T18:26:31.020Z,6.60
2023-03-01T18:29:01.240Z,6.30
2023-03-01T18:31:33.441Z,6.00
2023-03-01T18:34:02.156Z,6.40
2023-03-01T18:36:33.735Z,6.50
2023-03-01T18:39:03.923Z,6.70
2023-03-01T18:41:32.949Z,7.00
2023-03-01T18:44:02.898Z,7.50
2023-03-01T18:46:31.745Z,7.70
2023-03-01T18:49:00.294Z,8.10
2023-03-01T18:51:30.331Z,8.50
2023-03-01T18:54:00.609Z,9.60
2023-03-01T18:56:30.850Z,10.90
2023-03-01T18:59:00.290Z,12.10
2023-03-01T19:01:31.085Z,13.30
2023-03-01T19:03:59.879Z,14.20
2023-03-01T19:06:31.912Z,14.70
2023-03-01T19:09:01.744Z,15.20
2023-03-01T19:11:31.057Z,15.90
2023-03-01T19:14:01.422Z,15.90
2023-03-01T19:16:32.213Z,16.30
2023-03-01T19:19:03.134Z,17.00
2023-03-01T19:21:33.567Z,17.60
2023-03-01T19:24:03.999Z,18.00
2023-03-01T19:26:33.925Z,18.80
2023-03-01T19:29:03.643Z,19.60
2023-03-01T19:31:32.599Z,19.90
2023-03-01T19:34:10.930Z,20.50
2023-03-01T19:36:39.733Z,20.60
2023-03-01T19:39:10.006Z,21.10
2023-03-01T19:41:38.292Z,20.90
2023-03-01T19:44:08.696Z,21.30
2023-03-01T19:46:37.017Z,20.90
2023-03-01T19:49:06.150Z,21.20
2023-03-01T19:51:36.648Z,21.60
2023-03-01T19:54:05.889Z,22.20
2023-03-01T19:56:36.065Z,22.30
2023-03-01T19:59:04.986Z,22.10
2023-03-01T20:01:34.867Z,23.40
2023-03-01T20:04:03.707Z,23.40
2023-03-01T20:06:32.711Z,23.50
2023-03-01T20:09:12.141Z,23.40
2023-03-01T20:11:48.910Z,23.50
2023-03-01T20:14:17.086Z,23.50
2023-03-01T20:16:45.436Z,24.10
2023-03-01T20:19:13.649Z,24.60
2023-03-01T20:21:41.893Z,25.00
2023-03-01T20:24:10.282Z,24.90
2023-03-01T20:26:41.039Z,24.70
2023-03-01T20:29:10.884Z,25.00
2023-03-01T20:31:41.617Z,24.20
2023-03-01T20:34:10.075Z,24.30
2023-03-01T20:36:41.028Z,24.50
2023-03-01T20:39:11.690Z,25.10
2023-03-01T20:41:39.811Z,25.60
2023-03-01T20:44:09.468Z,25.20
2023-03-01T20:46:39.416Z,26.00
2023-03-01T20:49:07.885Z,26.50
2023-03-01T20:51:36.157Z,26.30
2023-03-01T20:54:05.104Z,26.60
2023-03-01T20:56:33.483Z,26.40
2023-03-01T20:59:01.716Z,26.70
2023-03-01T21:01:29.809Z,26.60
2023-03-01T21:03:59.427Z,26.40
2023-03-01T21:06:27.619Z,26.60
2023-03-01T21:08:56.406Z,26.80
2023-03-01T21:11:25.297Z,27.20
2023-03-01T21:13:53.687Z,27.10
2023-03-01T21:16:22.893Z,28.20
2023-03-01T21:18:51.103Z,27.80
2023-03-01T21:21:23.275Z,28.00
2023-03-01T21:23:51.533Z,27.80
2023-03-01T21:26:22.382Z,28.60
2023-03-01T21:28:51.805Z,27.80
2023-03-01T21:31:22.477Z,27.70
2023-03-01T21:33:52.011Z,27.40
2023-03-01T21:36:22.632Z,27.80
2023-03-01T21:38:51.925Z,27.30
2023-03-01T21:41:22.667Z,28.30
2023-03-01T21:43:52.297Z,28.50
2023-03-01T21:46:22.378Z,28.60
2023-03-01T21:48:52.708Z,28.50
2023-03-01T21:51:25.315Z,29.00
2023-03-01T21:53:55.574Z,28.70
2023-03-01T21:56:25.597Z,29.30
2023-03-01T21:58:53.727Z,29.70
2023-03-01T22:01:24.555Z,29.70
2023-03-01T22:03:52.875Z,29.60
2023-03-01T22:06:24.550Z,29.50
2023-03-01T22:08:55.205Z,30.20
2023-03-01T22:11:26.352Z,30.00
2023-03-01T22:13:55.583Z,30.40
2023-03-01T22:16:26.253Z,31.10
2023-03-01T22:18:54.741Z,30.20
2023-03-01T22:21:24.920Z,29.70
2023-03-01T22:23:53.944Z,30.20
2023-03-01T22:26:25.445Z,29.70
2023-03-01T22:28:54.700Z,30.20
2023-03-01T22:31:23.361Z,30.80
2023-03-01T22:33:51.866Z,30.60
2023-03-01T22:36:20.007Z,30.90
2023-03-01T22:38:49.854Z,32.20
2023-03-01T22:41:17.916Z,33.20
2023-03-01T22:43:45.968Z,34.30
2023-03-01T22:46:15.678Z,34.20
2023-03-01T22:48:43.920Z,33.30
2023-03-01T22:51:16.412Z,33.00
2023-03-01T22:53:44.508Z,33.80
2023-03-01T22:56:17.043Z,34.10
2023-03-01T22:58:45.393Z,33.60
2023-03-01T23:01:15.222Z,35.80
2023-03-01T23:03:43.395Z,36.10
2023-03-01T23:06:11.919Z,35.90
2023-03-01T23:08:40.059Z,36.60
2023-03-01T23:11:12.422Z,35.80
2023-03-01T23:13:42.428Z,34.70
2023-03-01T23:16:11.469Z,35.70
2023-03-01T23:18:39.762Z,35.90
2023-03-01T23:21:12.213Z,35.90
2023-03-01T23:23:40.318Z,36.50
2023-03-01T23:26:08.492Z,35.80
2023-03-01T23:28:40.795Z,35.90
2023-03-01T23:31:13.741Z,38.20
2023-03-01T23:33:44.445Z,38.90
2023-03-01T23:36:18.775Z,38.30
2023-03-01T23:38:47.281Z,36.70
2023-03-01T23:41:17.084Z,36.90
2023-03-01T23:43:45.871Z,35.80
2023-03-01T23:46:15.785Z,36.10
2023-03-01T23:48:45.183Z,37.50
2023-03-01T23:51:14.460Z,37.30
2023-03-01T23:53:44.135Z,37.80
2023-03-01T23:56:14.532Z,38.20
2023-03-01T23:58:44.341Z,38.10
